sensor_id;sensor_type;location;lat;lon;timestamp;temperature;humidity
27439;DHT22;14887;51.252;7.470;2023-12-07T00:01:10;1.00;99.90
27439;DHT22;14887;51.252;7.470;2023-12-07T00:03:35;0.90;99.90
27439;DHT22;14887;51.252;7.470;2023-12-07T00:06:01;0.90;99.90
27439;DHT22;14887;51.252;7.470;2023-12-07T00:08:27;0.90;99.90
27439;DHT22;14887;51.252;7.470;2023-12-07T00:10:52;0.90;99.90
27439;DHT22;14887;51.252;7.470;2023-12-07T00:13:18;0.90;99.90
27439;DHT22;14887;51.252;7.470;2023-12-07T00:15:44;0.90;99.90
27439;DHT22;14887;51.252;7.470;2023-12-07T00:18:09;0.90;99.90
27439;DHT22;14887;51.252;7.470;2023-12-07T00:20:35;0.90;99.90
27439;DHT22;14887;51.252;7.470;2023-12-07T00:23:01;0.80;99.90
27439;DHT22;14887;51.252;7.470;2023-12-07T00:25:26;0.80;99.90
27439;DHT22;14887;51.252;7.470;2023-12-07T00:27:52;0.90;99.90
27439;DHT22;14887;51.252;7.470;2023-12-07T00:30:18;0.80;99.90
27439;DHT22;14887;51.252;7.470;2023-12-07T00:32:45;0.70;99.90
27439;DHT22;14887;51.252;7.470;2023-12-07T00:35:12;0.70;99.90
27439;DHT22;14887;51.252;7.470;2023-12-07T00:37:37;0.70;99.90
27439;DHT22;14887;51.252;7.470;2023-12-07T00:40:03;0.70;99.90
27439;DHT22;14887;51.252;7.470;2023-12-07T00:42:33;0.70;99.90
27439;DHT22;14887;51.252;7.470;2023-12-07T00:45:00;0.60;99.90
27439;DHT22;14887;51.252;7.470;2023-12-07T00:47:27;0.60;99.90
27439;DHT22;14887;51.252;7.470;2023-12-07T00:49:54;0.60;99.90
27439;DHT22;14887;51.252;7.470;2023-12-07T00:52:19;0.60;99.90
27439;DHT22;14887;51.252;7.470;2023-12-07T00:54:45;0.60;99.90
27439;DHT22;14887;51.252;7.470;2023-12-07T00:57:11;0.60;99.90
27439;DHT22;14887;51.252;7.470;2023-12-07T00:59:36;0.60;99.90
27439;DHT22;14887;51.252;7.470;2023-12-07T01:02:06;0.50;99.90
27439;DHT22;14887;51.252;7.470;2023-12-07T01:04:32;0.50;99.90
27439;DHT22;14887;51.252;7.470;2023-12-07T01:06:58;0.50;99.90
27439;DHT22;14887;51.252;7.470;2023-12-07T01:09:25;0.30;99.90
27439;DHT22;14887;51.252;7.470;2023-12-07T01:11:50;0.30;99.90
27439;DHT22;14887;51.252;7.470;2023-12-07T01:14:16;0.30;99.90
27439;DHT22;14887;51.252;7.470;2023-12-07T01:16:43;0.30;99.90
27439;DHT22;14887;51.252;7.470;2023-12-07T01:19:09;0.40;99.90
27439;DHT22;14887;51.252;7.470;2023-12-07T01:21:34;0.40;99.90
27439;DHT22;14887;51.252;7.470;2023-12-07T01:24:00;0.50;99.90
27439;DHT22;14887;51.252;7.470;2023-12-07T01:26:26;0.50;99.90
27439;DHT22;14887;51.252;7.470;2023-12-07T01:28:51;0.60;99.90
27439;DHT22;14887;51.252;7.470;2023-12-07T01:31:17;0.60;99.90
27439;DHT22;14887;51.252;7.470;2023-12-07T01:33:43;0.60;99.90
27439;DHT22;14887;51.252;7.470;2023-12-07T01:36:10;0.70;99.90
27439;DHT22;14887;51.252;7.470;2023-12-07T01:38:35;0.70;99.90
27439;DHT22;14887;51.252;7.470;2023-12-07T01:41:01;0.70;99.90
27439;DHT22;14887;51.252;7.470;2023-12-07T01:43:28;0.60;99.90
27439;DHT22;14887;51.252;7.470;2023-12-07T01:45:57;0.60;99.90
27439;DHT22;14887;51.252;7.470;2023-12-07T01:48:25;0.60;99.90
27439;DHT22;14887;51.252;7.470;2023-12-07T01:50:55;0.60;99.90
27439;DHT22;14887;51.252;7.470;2023-12-07T01:53:23;0.70;99.90
27439;DHT22;14887;51.252;7.470;2023-12-07T01:55:51;0.70;99.90
27439;DHT22;14887;51.252;7.470;2023-12-07T01:58:17;0.70;99.90
27439;DHT22;14887;51.252;7.470;2023-12-07T02:00:43;0.70;99.90
27439;DHT22;14887;51.252;7.470;2023-12-07T02:03:10;0.60;99.90
27439;DHT22;14887;51.252;7.470;2023-12-07T02:05:40;0.50;99.90
27439;DHT22;14887;51.252;7.470;2023-12-07T02:08:07;0.50;99.90
27439;DHT22;14887;51.252;7.470;2023-12-07T02:10:33;0.50;99.90
27439;DHT22;14887;51.252;7.470;2023-12-07T02:12:59;0.60;99.90
27439;DHT22;14887;51.252;7.470;2023-12-07T02:15:25;0.60;99.90
27439;DHT22;14887;51.252;7.470;2023-12-07T02:23:24;0.50;99.90
27439;DHT22;14887;51.252;7.470;2023-12-07T02:25:52;0.40;99.90
27439;DHT22;14887;51.252;7.470;2023-12-07T02:28:18;0.50;99.90
27439;DHT22;14887;51.252;7.470;2023-12-07T02:30:44;0.50;99.90
27439;DHT22;14887;51.252;7.470;2023-12-07T02:33:10;0.50;99.90
27439;DHT22;14887;51.252;7.470;2023-12-07T02:35:37;0.40;99.90
27439;DHT22;14887;51.252;7.470;2023-12-07T02:38:03;0.40;99.90
27439;DHT22;14887;51.252;7.470;2023-12-07T02:40:31;0.40;99.90
27439;DHT22;14887;51.252;7.470;2023-12-07T02:42:58;0.40;99.90
27439;DHT22;14887;51.252;7.470;2023-12-07T02:45:25;0.30;99.90
27439;DHT22;14887;51.252;7.470;2023-12-07T02:47:52;0.10;99.90
27439;DHT22;14887;51.252;7.470;2023-12-07T02:50:18;0.30;99.90
27439;DHT22;14887;51.252;7.470;2023-12-07T02:52:44;0.30;99.90
27439;DHT22;14887;51.252;7.470;2023-12-07T02:55:10;0.30;99.90
27439;DHT22;14887;51.252;7.470;2023-12-07T02:57:35;0.30;99.90
27439;DHT22;14887;51.252;7.470;2023-12-07T03:00:02;0.30;99.90
27439;DHT22;14887;51.252;7.470;2023-12-07T03:02:37;0.20;99.90
27439;DHT22;14887;51.252;7.470;2023-12-07T03:05:04;0.20;99.90
27439;DHT22;14887;51.252;7.470;2023-12-07T03:07:29;0.30;99.90
27439;DHT22;14887;51.252;7.470;2023-12-07T03:09:55;0.30;99.90
27439;DHT22;14887;51.252;7.470;2023-12-07T03:12:21;0.30;99.90
27439;DHT22;14887;51.252;7.470;2023-12-07T03:14:46;0.20;99.90
27439;DHT22;14887;51.252;7.470;2023-12-07T03:17:13;0.30;99.90
27439;DHT22;14887;51.252;7.470;2023-12-07T03:19:39;0.20;99.90
27439;DHT22;14887;51.252;7.470;2023-12-07T03:22:05;0.30;99.90
27439;DHT22;14887;51.252;7.470;2023-12-07T03:24:35;0.20;99.90
27439;DHT22;14887;51.252;7.470;2023-12-07T03:27:01;0.00;99.90
27439;DHT22;14887;51.252;7.470;2023-12-07T03:29:27;0.00;99.90
27439;DHT22;14887;51.252;7.470;2023-12-07T03:31:59;0.10;99.90
27439;DHT22;14887;51.252;7.470;2023-12-07T03:34:25;0.10;99.90
27439;DHT22;14887;51.252;7.470;2023-12-07T03:36:51;0.20;99.90
27439;DHT22;14887;51.252;7.470;2023-12-07T03:39:18;0.20;99.90
27439;DHT22;14887;51.252;7.470;2023-12-07T03:41:50;0.10;99.90
27439;DHT22;14887;51.252;7.470;2023-12-07T03:44:16;0.20;99.90
27439;DHT22;14887;51.252;7.470;2023-12-07T03:46:42;0.10;99.90
27439;DHT22;14887;51.252;7.470;2023-12-07T03:49:07;0.20;99.90
27439;DHT22;14887;51.252;7.470;2023-12-07T03:51:33;0.20;99.90
27439;DHT22;14887;51.252;7.470;2023-12-07T03:54:00;0.20;99.90
27439;DHT22;14887;51.252;7.470;2023-12-07T03:56:30;0.30;99.90
27439;DHT22;14887;51.252;7.470;2023-12-07T03:58:56;0.20;99.90
27439;DHT22;14887;51.252;7.470;2023-12-07T04:01:26;0.30;99.90
27439;DHT22;14887;51.252;7.470;2023-12-07T04:03:53;0.20;99.90
27439;DHT22;14887;51.252;7.470;2023-12-07T04:06:20;0.10;99.90
27439;DHT22;14887;51.252;7.470;2023-12-07T04:08:46;0.10;99.90
27439;DHT22;14887;51.252;7.470;2023-12-07T04:11:13;0.10;99.90
27439;DHT22;14887;51.252;7.470;2023-12-07T04:13:39;0.10;99.90
27439;DHT22;14887;51.252;7.470;2023-12-07T04:16:06;0.10;99.90
27439;DHT22;14887;51.252;7.470;2023-12-07T04:18:31;0.10;99.90
27439;DHT22;14887;51.252;7.470;2023-12-07T04:20:58;0.10;99.90
27439;DHT22;14887;51.252;7.470;2023-12-07T04:23:24;0.10;99.90
27439;DHT22;14887;51.252;7.470;2023-12-07T04:25:50;0.20;99.90
27439;DHT22;14887;51.252;7.470;2023-12-07T04:28:16;0.20;99.90
27439;DHT22;14887;51.252;7.470;2023-12-07T04:30:42;0.10;99.90
27439;DHT22;14887;51.252;7.470;2023-12-07T04:33:08;0.20;99.90
27439;DHT22;14887;51.252;7.470;2023-12-07T04:35:34;0.20;99.90
27439;DHT22;14887;51.252;7.470;2023-12-07T04:38:00;0.20;99.90
27439;DHT22;14887;51.252;7.470;2023-12-07T04:40:25;0.20;99.90
27439;DHT22;14887;51.252;7.470;2023-12-07T04:42:52;0.30;99.90
27439;DHT22;14887;51.252;7.470;2023-12-07T04:45:18;0.30;99.90
27439;DHT22;14887;51.252;7.470;2023-12-07T04:47:45;0.30;99.90
27439;DHT22;14887;51.252;7.470;2023-12-07T04:50:11;0.30;99.90
27439;DHT22;14887;51.252;7.470;2023-12-07T04:52:36;0.30;99.90
27439;DHT22;14887;51.252;7.470;2023-12-07T04:55:02;0.20;99.90
27439;DHT22;14887;51.252;7.470;2023-12-07T04:57:28;0.20;99.90
27439;DHT22;14887;51.252;7.470;2023-12-07T04:59:53;0.20;99.90
27439;DHT22;14887;51.252;7.470;2023-12-07T05:02:19;0.20;99.90
27439;DHT22;14887;51.252;7.470;2023-12-07T05:04:45;0.20;99.90
27439;DHT22;14887;51.252;7.470;2023-12-07T05:07:11;0.20;99.90
27439;DHT22;14887;51.252;7.470;2023-12-07T05:09:37;0.20;99.90
27439;DHT22;14887;51.252;7.470;2023-12-07T05:12:03;0.20;99.90
27439;DHT22;14887;51.252;7.470;2023-12-07T05:14:31;0.20;99.90
27439;DHT22;14887;51.252;7.470;2023-12-07T05:16:56;0.20;99.90
27439;DHT22;14887;51.252;7.470;2023-12-07T05:19:23;0.10;99.90
27439;DHT22;14887;51.252;7.470;2023-12-07T05:21:48;0.10;99.90
27439;DHT22;14887;51.252;7.470;2023-12-07T05:24:15;0.10;99.90
27439;DHT22;14887;51.252;7.470;2023-12-07T05:26:41;0.20;99.90
27439;DHT22;14887;51.252;7.470;2023-12-07T05:29:07;0.20;99.90
27439;DHT22;14887;51.252;7.470;2023-12-07T05:31:33;0.20;99.90
27439;DHT22;14887;51.252;7.470;2023-12-07T05:33:59;0.10;99.90
27439;DHT22;14887;51.252;7.470;2023-12-07T05:36:24;0.20;99.90
27439;DHT22;14887;51.252;7.470;2023-12-07T05:38:51;0.20;99.90
27439;DHT22;14887;51.252;7.470;2023-12-07T05:41:17;0.20;99.90
27439;DHT22;14887;51.252;7.470;2023-12-07T05:43:42;0.20;99.90
27439;DHT22;14887;51.252;7.470;2023-12-07T05:46:08;0.30;99.90
27439;DHT22;14887;51.252;7.470;2023-12-07T05:48:34;0.20;99.90
27439;DHT22;14887;51.252;7.470;2023-12-07T05:51:01;0.30;99.90
27439;DHT22;14887;51.252;7.470;2023-12-07T05:53:27;0.30;99.90
27439;DHT22;14887;51.252;7.470;2023-12-07T05:55:53;0.30;99.90
27439;DHT22;14887;51.252;7.470;2023-12-07T05:58:19;0.30;99.90
27439;DHT22;14887;51.252;7.470;2023-12-07T06:00:44;0.30;99.90
27439;DHT22;14887;51.252;7.470;2023-12-07T06:03:12;0.20;99.90
27439;DHT22;14887;51.252;7.470;2023-12-07T06:05:38;0.20;99.90
27439;DHT22;14887;51.252;7.470;2023-12-07T06:08:04;0.20;99.90
27439;DHT22;14887;51.252;7.470;2023-12-07T06:10:30;0.20;99.90
27439;DHT22;14887;51.252;7.470;2023-12-07T06:12:56;0.20;99.90
27439;DHT22;14887;51.252;7.470;2023-12-07T06:15:23;0.10;99.90
27439;DHT22;14887;51.252;7.470;2023-12-07T06:17:49;0.10;99.90
27439;DHT22;14887;51.252;7.470;2023-12-07T06:20:15;0.10;99.90
27439;DHT22;14887;51.252;7.470;2023-12-07T06:22:41;0.10;99.90
27439;DHT22;14887;51.252;7.470;2023-12-07T06:25:06;0.10;99.90
27439;DHT22;14887;51.252;7.470;2023-12-07T06:27:36;0.10;99.90
27439;DHT22;14887;51.252;7.470;2023-12-07T06:30:03;0.10;99.90
27439;DHT22;14887;51.252;7.470;2023-12-07T06:32:31;0.10;99.90
27439;DHT22;14887;51.252;7.470;2023-12-07T06:34:57;0.10;99.90
27439;DHT22;14887;51.252;7.470;2023-12-07T06:37:22;0.10;99.90
27439;DHT22;14887;51.252;7.470;2023-12-07T06:39:48;0.10;99.90
27439;DHT22;14887;51.252;7.470;2023-12-07T06:42:14;0.10;99.90
27439;DHT22;14887;51.252;7.470;2023-12-07T06:47:09;0.10;99.90
27439;DHT22;14887;51.252;7.470;2023-12-07T06:49:35;0.10;99.90
27439;DHT22;14887;51.252;7.470;2023-12-07T06:52:01;0.00;99.90
27439;DHT22;14887;51.252;7.470;2023-12-07T06:54:27;0.00;99.90
27439;DHT22;14887;51.252;7.470;2023-12-07T06:56:52;0.00;99.90
27439;DHT22;14887;51.252;7.470;2023-12-07T06:59:19;0.00;99.90
27439;DHT22;14887;51.252;7.470;2023-12-07T07:01:45;-0.10;99.90
27439;DHT22;14887;51.252;7.470;2023-12-07T07:04:10;-0.20;99.90
27439;DHT22;14887;51.252;7.470;2023-12-07T07:06:36;-0.10;99.90
27439;DHT22;14887;51.252;7.470;2023-12-07T07:09:01;-0.10;99.90
27439;DHT22;14887;51.252;7.470;2023-12-07T07:11:28;0.00;99.90
27439;DHT22;14887;51.252;7.470;2023-12-07T07:13:54;0.00;99.90
27439;DHT22;14887;51.252;7.470;2023-12-07T07:16:20;0.10;99.90
27439;DHT22;14887;51.252;7.470;2023-12-07T07:18:46;0.10;99.90
27439;DHT22;14887;51.252;7.470;2023-12-07T07:21:11;0.10;99.90
27439;DHT22;14887;51.252;7.470;2023-12-07T07:23:37;0.20;99.90
27439;DHT22;14887;51.252;7.470;2023-12-07T07:26:03;0.20;99.90
27439;DHT22;14887;51.252;7.470;2023-12-07T07:28:28;0.20;99.90
27439;DHT22;14887;51.252;7.470;2023-12-07T07:30:54;0.20;99.90
27439;DHT22;14887;51.252;7.470;2023-12-07T07:33:20;0.30;99.90
27439;DHT22;14887;51.252;7.470;2023-12-07T07:35:45;0.20;99.90
27439;DHT22;14887;51.252;7.470;2023-12-07T07:38:11;0.20;99.90
27439;DHT22;14887;51.252;7.470;2023-12-07T07:40:36;0.30;99.90
27439;DHT22;14887;51.252;7.470;2023-12-07T07:43:02;0.30;99.90
27439;DHT22;14887;51.252;7.470;2023-12-07T07:45:27;0.30;99.90
27439;DHT22;14887;51.252;7.470;2023-12-07T07:47:53;0.30;99.90
27439;DHT22;14887;51.252;7.470;2023-12-07T07:50:19;0.30;99.90
27439;DHT22;14887;51.252;7.470;2023-12-07T07:52:45;0.30;99.90
27439;DHT22;14887;51.252;7.470;2023-12-07T07:55:11;0.20;99.90
27439;DHT22;14887;51.252;7.470;2023-12-07T07:57:37;0.20;99.90
27439;DHT22;14887;51.252;7.470;2023-12-07T08:00:03;0.30;99.90
27439;DHT22;14887;51.252;7.470;2023-12-07T08:02:30;0.30;99.90
27439;DHT22;14887;51.252;7.470;2023-12-07T08:04:56;0.40;99.90
27439;DHT22;14887;51.252;7.470;2023-12-07T08:07:22;0.40;99.90
27439;DHT22;14887;51.252;7.470;2023-12-07T08:09:47;0.50;99.90
27439;DHT22;14887;51.252;7.470;2023-12-07T08:12:13;0.50;99.90
27439;DHT22;14887;51.252;7.470;2023-12-07T08:14:39;0.50;99.90
27439;DHT22;14887;51.252;7.470;2023-12-07T08:17:05;0.50;99.90
27439;DHT22;14887;51.252;7.470;2023-12-07T08:19:31;0.50;99.90
27439;DHT22;14887;51.252;7.470;2023-12-07T08:21:56;0.50;99.90
27439;DHT22;14887;51.252;7.470;2023-12-07T08:24:22;0.50;99.90
27439;DHT22;14887;51.252;7.470;2023-12-07T08:26:48;0.50;99.90
27439;DHT22;14887;51.252;7.470;2023-12-07T08:29:14;0.50;99.90
27439;DHT22;14887;51.252;7.470;2023-12-07T08:31:42;0.40;99.90
27439;DHT22;14887;51.252;7.470;2023-12-07T08:34:07;0.40;99.90
27439;DHT22;14887;51.252;7.470;2023-12-07T08:36:33;0.40;99.90
27439;DHT22;14887;51.252;7.470;2023-12-07T08:38:59;0.40;99.90
27439;DHT22;14887;51.252;7.470;2023-12-07T08:41:24;0.40;99.90
27439;DHT22;14887;51.252;7.470;2023-12-07T08:43:50;0.40;99.90
27439;DHT22;14887;51.252;7.470;2023-12-07T08:46:15;0.40;99.90
27439;DHT22;14887;51.252;7.470;2023-12-07T08:48:41;0.40;99.90
27439;DHT22;14887;51.252;7.470;2023-12-07T08:51:07;0.40;99.90
27439;DHT22;14887;51.252;7.470;2023-12-07T08:53:34;0.40;99.90
27439;DHT22;14887;51.252;7.470;2023-12-07T08:56:01;0.50;99.90
27439;DHT22;14887;51.252;7.470;2023-12-07T08:58:26;0.50;99.90
27439;DHT22;14887;51.252;7.470;2023-12-07T09:00:52;0.80;99.90
27439;DHT22;14887;51.252;7.470;2023-12-07T09:03:17;0.90;99.90
27439;DHT22;14887;51.252;7.470;2023-12-07T09:05:43;1.00;99.90
27439;DHT22;14887;51.252;7.470;2023-12-07T09:08:09;1.10;99.90
27439;DHT22;14887;51.252;7.470;2023-12-07T09:10:35;1.20;99.90
27439;DHT22;14887;51.252;7.470;2023-12-07T09:13:00;1.30;99.90
27439;DHT22;14887;51.252;7.470;2023-12-07T09:15:26;1.50;99.90
27439;DHT22;14887;51.252;7.470;2023-12-07T09:17:52;1.50;99.90
27439;DHT22;14887;51.252;7.470;2023-12-07T09:20:17;1.50;99.90
27439;DHT22;14887;51.252;7.470;2023-12-07T09:22:44;1.50;99.90
27439;DHT22;14887;51.252;7.470;2023-12-07T09:25:10;1.40;99.90
27439;DHT22;14887;51.252;7.470;2023-12-07T09:27:37;1.10;97.20
27439;DHT22;14887;51.252;7.470;2023-12-07T09:30:05;1.00;91.30
27439;DHT22;14887;51.252;7.470;2023-12-07T09:32:31;0.90;92.10
27439;DHT22;14887;51.252;7.470;2023-12-07T09:34:57;0.80;92.00
27439;DHT22;14887;51.252;7.470;2023-12-07T09:37:22;0.70;93.80
27439;DHT22;14887;51.252;7.470;2023-12-07T09:39:48;0.70;97.30
27439;DHT22;14887;51.252;7.470;2023-12-07T09:42:14;0.70;99.90
27439;DHT22;14887;51.252;7.470;2023-12-07T09:44:39;0.70;99.90
27439;DHT22;14887;51.252;7.470;2023-12-07T09:47:05;0.70;99.90
27439;DHT22;14887;51.252;7.470;2023-12-07T09:49:31;0.70;99.90
27439;DHT22;14887;51.252;7.470;2023-12-07T09:51:58;0.70;99.90
27439;DHT22;14887;51.252;7.470;2023-12-07T09:54:25;0.60;99.90
27439;DHT22;14887;51.252;7.470;2023-12-07T09:56:51;0.70;99.90
27439;DHT22;14887;51.252;7.470;2023-12-07T09:59:20;0.70;99.60
27439;DHT22;14887;51.252;7.470;2023-12-07T10:01:45;0.60;96.90
27439;DHT22;14887;51.252;7.470;2023-12-07T10:04:22;0.60;98.60
27439;DHT22;14887;51.252;7.470;2023-12-07T10:06:52;0.70;99.50
27439;DHT22;14887;51.252;7.470;2023-12-07T10:09:18;0.60;96.10
27439;DHT22;14887;51.252;7.470;2023-12-07T10:11:47;0.60;96.80
27439;DHT22;14887;51.252;7.470;2023-12-07T10:14:13;0.60;99.40
27439;DHT22;14887;51.252;7.470;2023-12-07T10:16:39;0.60;98.90
27439;DHT22;14887;51.252;7.470;2023-12-07T10:19:17;0.60;98.50
27439;DHT22;14887;51.252;7.470;2023-12-07T10:21:47;0.70;99.90
27439;DHT22;14887;51.252;7.470;2023-12-07T10:24:13;0.60;98.30
27439;DHT22;14887;51.252;7.470;2023-12-07T10:26:39;0.60;97.70
27439;DHT22;14887;51.252;7.470;2023-12-07T10:29:05;0.60;96.80
27439;DHT22;14887;51.252;7.470;2023-12-07T10:31:32;0.60;92.30
27439;DHT22;14887;51.252;7.470;2023-12-07T10:33:58;0.50;81.30
27439;DHT22;14887;51.252;7.470;2023-12-07T10:36:24;0.40;78.30
27439;DHT22;14887;51.252;7.470;2023-12-07T10:38:50;0.40;76.70
27439;DHT22;14887;51.252;7.470;2023-12-07T10:41:18;0.40;86.80
27439;DHT22;14887;51.252;7.470;2023-12-07T10:43:49;0.50;88.60
27439;DHT22;14887;51.252;7.470;2023-12-07T10:46:17;0.60;92.70
27439;DHT22;14887;51.252;7.470;2023-12-07T10:48:45;0.60;90.30
27439;DHT22;14887;51.252;7.470;2023-12-07T10:51:23;0.70;89.20
27439;DHT22;14887;51.252;7.470;2023-12-07T10:53:53;0.70;83.30
27439;DHT22;14887;51.252;7.470;2023-12-07T10:56:29;0.70;78.60
27439;DHT22;14887;51.252;7.470;2023-12-07T10:58:57;0.80;65.20
27439;DHT22;14887;51.252;7.470;2023-12-07T11:01:23;0.70;45.30
27439;DHT22;14887;51.252;7.470;2023-12-07T11:03:50;0.80;45.60
27439;DHT22;14887;51.252;7.470;2023-12-07T11:06:18;0.80;35.90
27439;DHT22;14887;51.252;7.470;2023-12-07T11:08:54;1.00;34.00
27439;DHT22;14887;51.252;7.470;2023-12-07T11:11:36;1.00;25.20
27439;DHT22;14887;51.252;7.470;2023-12-07T11:14:06;1.00;12.40
27439;DHT22;14887;51.252;7.470;2023-12-07T11:16:36;1.10;13.50
27439;DHT22;14887;51.252;7.470;2023-12-07T11:19:03;1.20;8.80
27439;DHT22;14887;51.252;7.470;2023-12-07T11:21:30;1.10;1.00
27439;DHT22;14887;51.252;7.470;2023-12-07T11:23:56;1.10;1.00
27439;DHT22;14887;51.252;7.470;2023-12-07T11:26:25;1.10;1.00
27439;DHT22;14887;51.252;7.470;2023-12-07T11:28:52;1.30;1.00
27439;DHT22;14887;51.252;7.470;2023-12-07T11:31:20;1.40;1.00
27439;DHT22;14887;51.252;7.470;2023-12-07T11:33:46;1.40;1.00
27439;DHT22;14887;51.252;7.470;2023-12-07T11:36:13;1.30;1.00
27439;DHT22;14887;51.252;7.470;2023-12-07T11:41:43;1.40;1.00
27439;DHT22;14887;51.252;7.470;2023-12-07T11:44:10;1.50;1.00
27439;DHT22;14887;51.252;7.470;2023-12-07T11:46:37;1.40;1.00
27439;DHT22;14887;51.252;7.470;2023-12-07T11:49:03;1.50;1.00
27439;DHT22;14887;51.252;7.470;2023-12-07T11:51:29;1.50;1.00
27439;DHT22;14887;51.252;7.470;2023-12-07T11:53:55;1.60;1.00
27439;DHT22;14887;51.252;7.470;2023-12-07T11:56:20;1.80;1.00
27439;DHT22;14887;51.252;7.470;2023-12-07T11:58:47;1.90;1.00
27439;DHT22;14887;51.252;7.470;2023-12-07T12:01:12;2.00;1.00
27439;DHT22;14887;51.252;7.470;2023-12-07T12:03:38;1.90;1.00
27439;DHT22;14887;51.252;7.470;2023-12-07T12:06:07;1.70;1.00
27439;DHT22;14887;51.252;7.470;2023-12-07T12:08:35;1.60;1.00
27439;DHT22;14887;51.252;7.470;2023-12-07T12:11:02;1.40;1.00
27439;DHT22;14887;51.252;7.470;2023-12-07T12:13:29;1.30;1.00
27439;DHT22;14887;51.252;7.470;2023-12-07T12:15:56;1.40;1.00
27439;DHT22;14887;51.252;7.470;2023-12-07T12:18:21;1.40;1.00
27439;DHT22;14887;51.252;7.470;2023-12-07T12:20:49;1.30;1.00
27439;DHT22;14887;51.252;7.470;2023-12-07T12:23:15;1.20;1.00
27439;DHT22;14887;51.252;7.470;2023-12-07T12:25:41;1.10;1.00
27439;DHT22;14887;51.252;7.470;2023-12-07T12:28:07;1.00;1.00
27439;DHT22;14887;51.252;7.470;2023-12-07T12:30:33;1.00;1.00
27439;DHT22;14887;51.252;7.470;2023-12-07T12:32:59;1.00;1.00
27439;DHT22;14887;51.252;7.470;2023-12-07T12:35:28;0.90;1.00
27439;DHT22;14887;51.252;7.470;2023-12-07T12:37:54;0.80;1.00
27439;DHT22;14887;51.252;7.470;2023-12-07T12:40:21;0.90;1.00
27439;DHT22;14887;51.252;7.470;2023-12-07T12:42:49;0.90;1.00
27439;DHT22;14887;51.252;7.470;2023-12-07T12:45:15;0.90;1.00
27439;DHT22;14887;51.252;7.470;2023-12-07T12:47:41;1.00;1.00
27439;DHT22;14887;51.252;7.470;2023-12-07T12:50:09;1.00;1.00
27439;DHT22;14887;51.252;7.470;2023-12-07T12:52:35;1.00;1.00
27439;DHT22;14887;51.252;7.470;2023-12-07T12:55:01;1.00;1.00
27439;DHT22;14887;51.252;7.470;2023-12-07T12:57:28;1.00;1.00
27439;DHT22;14887;51.252;7.470;2023-12-07T12:59:54;0.80;1.00
27439;DHT22;14887;51.252;7.470;2023-12-07T13:02:22;0.80;1.00
27439;DHT22;14887;51.252;7.470;2023-12-07T13:04:47;0.80;1.00
27439;DHT22;14887;51.252;7.470;2023-12-07T13:07:13;0.70;1.00
27439;DHT22;14887;51.252;7.470;2023-12-07T13:09:39;0.80;1.00
27439;DHT22;14887;51.252;7.470;2023-12-07T13:12:06;0.90;1.00
27439;DHT22;14887;51.252;7.470;2023-12-07T13:14:32;0.90;1.00
27439;DHT22;14887;51.252;7.470;2023-12-07T13:17:01;1.10;1.00
27439;DHT22;14887;51.252;7.470;2023-12-07T13:19:27;1.10;1.00
27439;DHT22;14887;51.252;7.470;2023-12-07T13:21:52;1.10;1.00
27439;DHT22;14887;51.252;7.470;2023-12-07T13:24:18;1.20;1.00
27439;DHT22;14887;51.252;7.470;2023-12-07T13:26:44;1.10;1.00
27439;DHT22;14887;51.252;7.470;2023-12-07T13:29:09;1.10;1.00
27439;DHT22;14887;51.252;7.470;2023-12-07T13:31:35;1.20;1.00
27439;DHT22;14887;51.252;7.470;2023-12-07T13:34:01;1.20;1.00
27439;DHT22;14887;51.252;7.470;2023-12-07T13:36:27;1.10;1.00
27439;DHT22;14887;51.252;7.470;2023-12-07T13:38:55;1.20;1.00
27439;DHT22;14887;51.252;7.470;2023-12-07T13:41:20;1.10;1.00
27439;DHT22;14887;51.252;7.470;2023-12-07T13:43:46;1.20;1.00
27439;DHT22;14887;51.252;7.470;2023-12-07T13:46:14;1.20;1.00
27439;DHT22;14887;51.252;7.470;2023-12-07T13:48:39;1.20;1.00
27439;DHT22;14887;51.252;7.470;2023-12-07T13:51:05;1.10;1.00
27439;DHT22;14887;51.252;7.470;2023-12-07T13:53:31;1.10;1.00
27439;DHT22;14887;51.252;7.470;2023-12-07T13:55:56;1.20;1.00
27439;DHT22;14887;51.252;7.470;2023-12-07T13:58:22;1.20;1.00
27439;DHT22;14887;51.252;7.470;2023-12-07T14:00:47;1.20;1.00
27439;DHT22;14887;51.252;7.470;2023-12-07T14:03:13;1.10;1.00
27439;DHT22;14887;51.252;7.470;2023-12-07T14:05:39;1.10;1.00
27439;DHT22;14887;51.252;7.470;2023-12-07T14:08:08;1.20;1.00
27439;DHT22;14887;51.252;7.470;2023-12-07T14:10:34;1.20;1.00
27439;DHT22;14887;51.252;7.470;2023-12-07T14:13:00;1.20;1.00
27439;DHT22;14887;51.252;7.470;2023-12-07T14:15:26;1.20;1.00
27439;DHT22;14887;51.252;7.470;2023-12-07T14:17:51;1.20;1.00
27439;DHT22;14887;51.252;7.470;2023-12-07T14:20:17;1.10;1.00
27439;DHT22;14887;51.252;7.470;2023-12-07T14:22:42;1.00;1.00
27439;DHT22;14887;51.252;7.470;2023-12-07T14:25:09;1.10;1.00
27439;DHT22;14887;51.252;7.470;2023-12-07T14:27:35;1.00;1.00
27439;DHT22;14887;51.252;7.470;2023-12-07T14:30:01;0.90;1.00
27439;DHT22;14887;51.252;7.470;2023-12-07T14:32:27;0.90;1.00
27439;DHT22;14887;51.252;7.470;2023-12-07T14:34:55;0.80;1.00
27439;DHT22;14887;51.252;7.470;2023-12-07T14:37:20;0.80;1.00
27439;DHT22;14887;51.252;7.470;2023-12-07T14:39:46;0.70;1.00
27439;DHT22;14887;51.252;7.470;2023-12-07T14:42:12;0.60;1.00
27439;DHT22;14887;51.252;7.470;2023-12-07T14:44:37;0.60;1.00
27439;DHT22;14887;51.252;7.470;2023-12-07T14:47:03;0.40;1.00
27439;DHT22;14887;51.252;7.470;2023-12-07T14:49:29;0.40;1.00
27439;DHT22;14887;51.252;7.470;2023-12-07T14:51:55;0.40;1.00
27439;DHT22;14887;51.252;7.470;2023-12-07T14:54:21;0.30;1.00
27439;DHT22;14887;51.252;7.470;2023-12-07T14:56:47;0.20;1.00
27439;DHT22;14887;51.252;7.470;2023-12-07T14:59:14;0.20;1.00
27439;DHT22;14887;51.252;7.470;2023-12-07T15:01:40;0.20;1.00
27439;DHT22;14887;51.252;7.470;2023-12-07T15:04:06;0.20;1.00
27439;DHT22;14887;51.252;7.470;2023-12-07T15:06:32;0.20;5.80
27439;DHT22;14887;51.252;7.470;2023-12-07T15:08:58;0.20;9.30
27439;DHT22;14887;51.252;7.470;2023-12-07T15:11:24;0.10;11.50
27439;DHT22;14887;51.252;7.470;2023-12-07T15:13:50;0.10;15.90
27439;DHT22;14887;51.252;7.470;2023-12-07T15:16:17;0.00;21.80
27439;DHT22;14887;51.252;7.470;2023-12-07T15:18:42;0.00;30.40
27439;DHT22;14887;51.252;7.470;2023-12-07T15:21:14;0.00;36.30
27439;DHT22;14887;51.252;7.470;2023-12-07T15:23:41;-0.10;38.50
27439;DHT22;14887;51.252;7.470;2023-12-07T15:26:07;-0.10;44.00
27439;DHT22;14887;51.252;7.470;2023-12-07T15:28:37;-0.20;50.10
27439;DHT22;14887;51.252;7.470;2023-12-07T15:31:04;-0.20;55.90
27439;DHT22;14887;51.252;7.470;2023-12-07T15:33:31;-0.20;60.80
27439;DHT22;14887;51.252;7.470;2023-12-07T15:35:57;-0.20;64.90
27439;DHT22;14887;51.252;7.470;2023-12-07T15:38:22;-0.20;66.40
27439;DHT22;14887;51.252;7.470;2023-12-07T15:40:48;-0.30;67.00
27439;DHT22;14887;51.252;7.470;2023-12-07T15:43:14;-0.30;68.10
27439;DHT22;14887;51.252;7.470;2023-12-07T15:45:39;-0.40;72.20
27439;DHT22;14887;51.252;7.470;2023-12-07T15:48:05;-0.30;78.20
27439;DHT22;14887;51.252;7.470;2023-12-07T15:50:31;-0.30;83.90
27439;DHT22;14887;51.252;7.470;2023-12-07T15:52:57;-0.30;88.80
27439;DHT22;14887;51.252;7.470;2023-12-07T15:55:22;-0.30;90.40